Kuujjuarapik Airport
CYGW : now visible

Airfield :











YOU CAN JOIN US ON...

 
LOGIN :

Register | Disclaimer

   EN    FR    IT 

 









Legend :    VFR   Marginal VFR   IFR   Intensive IFR   Very Intensive IFR
Visi :
Ceiling :
>= 8 km
>= 3000ft
5 to 8 km
1000 to 3000 ft
1500m to 5 km
500 to 1000 ft
800 to 1500m
200 to 500 ft
< 800m
< 200 ft
Symbols :   Thunderstorms  Fog  Heavy snow  Heavy precipitations  Wind > 20 kt







- Airport Elevation : 34 ft
- IATA code : YGW


CYGW - Kuujjuarapik

CURRENT METAR :
  • 260400Z AUTO 16011KT 9SM CLR 18/09 A3001 RMK SLP165 DENSITY ALT 200FT

EXPIRED METARs :
  • 260300Z AUTO 16011G16KT 9SM CLR 17/09 A3001 RMK SLP166 DENSITY ALT 200FT
  • 260200Z AUTO 15009G15KT 9SM CLR 18/09 A3002 RMK SLP168 DENSITY ALT 200FT

TAF TAF CYGW
Valid from the 26 at 00:00 until the 26 at 12:00 UTC


252338Z 2600/2612 20012G22KT P6SM SKC RMK FCST BASED ON AUTO OBS. NXT FCST BY 260600Z
No reported NOTAMs for that airfield.



MET'MAP, your aeronautical weather chart ! - Copyright ORBIFLY December 2007 - Disclaimer

ORBIFLY MET'MAP TEAM :

Programming & Development : Alexandra Zaïnal
Concept & Development : Baudouin d'Aumeries
Co-Development & Prog : Marc-Olivier Méhu
Technical & hardware support : Manuel Goepfert

Contact : metmap@orbifly.com




SOURCES & CREDITS :

   NOAA       Earth
Advisory